createdAt,value
2022-12-11T00:00:53.209Z,98490.91
2022-12-11T00:03:55.039Z,98500.78
2022-12-11T00:06:56.881Z,98500.97
2022-12-11T00:09:58.873Z,98499.78
2022-12-11T00:13:00.649Z,98484.56
2022-12-11T00:16:02.461Z,98483.53
2022-12-11T00:19:04.497Z,98491.38
2022-12-11T00:22:06.316Z,98485.22
2022-12-11T00:25:09.083Z,98494.25
2022-12-11T00:28:17.466Z,98493.06
2022-12-11T00:31:20.635Z,98492.88
2022-12-11T00:34:22.588Z,98490.84
2022-12-11T00:37:24.693Z,98493.22
2022-12-11T00:40:26.564Z,98483.00
2022-12-11T00:43:28.462Z,98490.00
2022-12-11T00:46:30.299Z,98483.66
2022-12-11T00:49:32.169Z,98480.16
2022-12-11T00:52:34.914Z,98472.13
2022-12-11T00:55:41.271Z,98474.44
2022-12-11T00:58:43.056Z,98461.41
2022-12-11T01:01:44.935Z,98455.06
2022-12-11T01:04:46.810Z,98450.72
2022-12-11T01:07:48.609Z,98465.75
2022-12-11T01:10:50.411Z,98465.41
2022-12-11T01:13:52.202Z,98464.75
2022-12-11T01:16:54.048Z,98454.88
2022-12-11T01:19:56.030Z,98460.22
2022-12-11T01:23:00.710Z,98461.41
2022-12-11T01:26:07.942Z,98466.94
2022-12-11T01:29:09.685Z,98471.28
2022-12-11T01:32:11.460Z,98474.16
2022-12-11T01:35:13.911Z,98480.31
2022-12-11T01:38:15.736Z,98479.31
2022-12-11T01:41:18.928Z,98482.66
2022-12-11T01:44:21.274Z,98481.63
2022-12-11T01:47:23.064Z,98475.81
2022-12-11T01:50:25.322Z,98475.63
2022-12-11T01:53:34.949Z,98479.78
2022-12-11T01:56:40.032Z,98477.13
2022-12-11T01:59:46.330Z,98472.78
2022-12-11T02:02:49.260Z,98478.94
2022-12-11T02:05:51.084Z,98483.47
2022-12-11T02:08:52.938Z,98477.94
2022-12-11T02:12:15.831Z,98478.78
2022-12-11T02:15:40.127Z,98473.88
2022-12-11T02:19:00.563Z,98466.03
2022-12-11T02:22:06.954Z,98469.72
2022-12-11T02:25:22.267Z,98462.72
2022-12-11T02:28:43.317Z,98464.03
2022-12-11T02:31:56.345Z,98452.50
2022-12-11T02:35:03.165Z,98458.19
2022-12-11T02:38:27.218Z,98449.16
2022-12-11T02:41:31.184Z,98454.50
2022-12-11T02:44:35.487Z,98455.16
2022-12-11T02:47:38.047Z,98452.66
2022-12-11T02:50:46.717Z,98455.81
2022-12-11T02:53:51.656Z,98456.66
2022-12-11T02:57:05.015Z,98467.72
2022-12-11T03:00:09.147Z,98459.69
2022-12-11T03:03:11.358Z,98449.81
2022-12-11T03:06:18.422Z,98464.50
2022-12-11T03:09:21.300Z,98466.16
2022-12-11T03:12:25.997Z,98456.91
2022-12-11T03:15:37.047Z,98458.31
2022-12-11T03:18:48.005Z,98456.66
2022-12-11T03:21:55.342Z,98446.59
2022-12-11T03:25:05.910Z,98440.41
2022-12-11T03:28:14.184Z,98445.28
2022-12-11T03:31:24.291Z,98444.28
2022-12-11T03:35:16.082Z,98447.25
2022-12-11T03:38:31.339Z,98450.09
2022-12-11T03:41:36.009Z,98452.59
2022-12-11T03:44:38.001Z,98453.25
2022-12-11T03:47:41.443Z,98452.59
2022-12-11T03:50:43.970Z,98453.59
2022-12-11T03:53:47.536Z,98453.41
2022-12-11T03:56:54.064Z,98456.47
2022-12-11T03:59:57.157Z,98468.66
2022-12-11T04:03:14.804Z,98467.44
2022-12-11T04:06:16.755Z,98478.16
2022-12-11T04:09:18.678Z,98482.84
2022-12-11T04:12:20.570Z,98497.06
2022-12-11T04:15:22.449Z,98476.84
2022-12-11T04:18:42.748Z,98484.03
2022-12-11T04:22:03.191Z,98481.38
2022-12-11T04:25:08.056Z,98483.56
2022-12-11T04:28:10.090Z,98479.25
2022-12-11T04:31:21.139Z,98483.09
2022-12-11T04:34:23.021Z,98473.06
2022-12-11T04:37:25.022Z,98463.19
2022-12-11T04:40:27.165Z,98468.06
2022-12-11T04:43:29.351Z,98466.41
2022-12-11T04:46:31.566Z,98468.91
2022-12-11T04:49:33.365Z,98470.09
2022-12-11T04:52:35.139Z,98477.47
2022-12-11T04:55:36.915Z,98475.44
2022-12-11T04:58:39.715Z,98464.75
2022-12-11T05:01:41.588Z,98471.75
2022-12-11T05:04:43.742Z,98475.44
2022-12-11T05:07:45.634Z,98468.44
2022-12-11T05:10:58.246Z,98466.69
2022-12-11T05:14:00.530Z,98468.06
2022-12-11T05:17:02.317Z,98465.88
2022-12-11T05:20:04.414Z,98473.59
2022-12-11T05:23:06.203Z,98473.06
2022-12-11T05:26:12.979Z,98476.09
2022-12-11T05:29:14.823Z,98477.03
2022-12-11T05:32:16.623Z,98468.81
2022-12-11T05:35:18.653Z,98481.38
2022-12-11T05:38:20.799Z,98475.00
2022-12-11T05:41:24.897Z,98473.44
2022-12-11T05:44:27.159Z,98479.81
2022-12-11T05:47:29.019Z,98491.16
2022-12-11T05:50:30.811Z,98494.31
2022-12-11T05:53:33.207Z,98490.97
2022-12-11T05:56:36.599Z,98494.66
2022-12-11T05:59:38.790Z,98487.47
2022-12-11T06:02:40.694Z,98494.66
2022-12-11T06:05:43.163Z,98496.53
2022-12-11T06:08:44.898Z,98508.22
2022-12-11T06:11:46.706Z,98501.50
2022-12-11T06:14:48.573Z,98505.00
2022-12-11T06:17:50.318Z,98508.34
2022-12-11T06:20:52.089Z,98495.13
2022-12-11T06:23:56.005Z,98497.34
2022-12-11T06:26:58.353Z,98497.34
2022-12-11T06:30:00.139Z,98496.22
2022-12-11T06:33:02.124Z,98498.91
2022-12-11T06:36:06.059Z,98509.31
2022-12-11T06:39:08.442Z,98497.97
2022-12-11T06:42:10.320Z,98498.50
2022-12-11T06:45:12.536Z,98503.84
2022-12-11T06:48:14.590Z,98501.84
2022-12-11T06:51:19.531Z,98505.88
2022-12-11T06:54:25.376Z,98515.28
2022-12-11T06:57:27.179Z,98512.78
2022-12-11T07:00:29.049Z,98510.47
2022-12-11T07:03:31.563Z,98522.53
2022-12-11T07:06:33.548Z,98522.84
2022-12-11T07:09:37.374Z,98506.97
2022-12-11T07:12:39.795Z,98518.31
2022-12-11T07:15:42.889Z,98516.00
2022-12-11T07:18:49.513Z,98515.53
2022-12-11T07:21:51.452Z,98524.91
2022-12-11T07:24:53.359Z,98534.78
2022-12-11T07:27:55.213Z,98521.41
2022-12-11T07:30:57.032Z,98523.31
2022-12-11T07:34:02.031Z,98523.50
2022-12-11T07:37:04.079Z,98520.16
2022-12-11T07:40:06.559Z,98537.88
2022-12-11T07:43:08.357Z,98529.19
2022-12-11T07:46:18.537Z,98536.56
2022-12-11T07:49:20.497Z,98528.91
2022-12-11T07:52:22.342Z,98523.72
2022-12-11T07:55:24.136Z,98529.25
2022-12-11T07:58:25.947Z,98522.72
2022-12-11T08:01:30.002Z,98522.53
2022-12-11T08:04:31.771Z,98512.91
2022-12-11T08:07:36.538Z,98520.47
2022-12-11T08:10:38.362Z,98521.94
2022-12-11T08:13:42.683Z,98518.13
2022-12-11T08:16:44.832Z,98515.00
2022-12-11T08:19:46.750Z,98521.34
2022-12-11T08:22:52.336Z,98509.34
2022-12-11T08:25:56.480Z,98506.00
2022-12-11T08:29:01.423Z,98508.69
2022-12-11T08:32:06.391Z,98496.03
2022-12-11T08:35:12.599Z,98499.06
2022-12-11T08:38:15.440Z,98496.56
2022-12-11T08:41:20.323Z,98484.69
2022-12-11T08:44:24.981Z,98488.06
2022-12-11T08:47:27.431Z,98484.22
2022-12-11T08:50:29.457Z,98491.44
2022-12-11T08:53:32.190Z,98482.53
2022-12-11T08:56:34.093Z,98488.53
2022-12-11T08:59:35.970Z,98478.84
2022-12-11T12:18:02.431Z,98342.16
2022-12-11T12:21:31.160Z,98343.75
2022-12-11T12:24:48.811Z,98334.56
2022-12-11T12:27:57.851Z,98331.41
2022-12-11T12:31:42.446Z,98348.38
2022-12-11T12:35:02.945Z,98340.56
2022-12-11T12:38:33.742Z,98331.91
2022-12-11T12:41:55.277Z,98334.38
2022-12-11T12:45:10.499Z,98319.00
2022-12-11T12:48:13.600Z,98320.34
2022-12-11T12:51:16.432Z,98303.88
2022-12-11T12:54:20.108Z,98308.34
2022-12-11T12:57:22.092Z,98313.00
2022-12-11T13:00:36.112Z,98307.66
2022-12-11T13:04:02.119Z,98313.81
2022-12-11T13:07:35.610Z,98313.66
2022-12-11T13:10:38.872Z,98307.13
2022-12-11T13:13:43.817Z,98305.09
2022-12-11T13:16:49.079Z,98310.25
2022-12-11T13:20:09.536Z,98309.63
2022-12-11T13:23:26.037Z,98303.09
2022-12-11T13:26:33.374Z,98303.91
2022-12-11T13:29:35.314Z,98301.53
2022-12-11T13:32:37.285Z,98306.34
2022-12-11T13:35:39.375Z,98312.34
2022-12-11T13:38:52.005Z,98311.16
2022-12-11T13:42:04.667Z,98317.97
2022-12-11T13:45:08.259Z,98311.78
2022-12-11T13:48:21.483Z,98305.72
2022-12-11T13:51:25.154Z,98286.56
2022-12-11T13:54:29.051Z,98281.50
2022-12-11T13:57:30.947Z,98286.91
2022-12-11T14:00:33.129Z,98287.03
2022-12-11T14:03:35.927Z,98289.53
2022-12-11T14:06:39.861Z,98277.72
2022-12-11T14:09:45.853Z,98286.56
2022-12-11T14:12:56.622Z,98278.84
2022-12-11T14:15:58.680Z,98277.75
2022-12-11T14:19:07.538Z,98275.44
2022-12-11T14:22:19.369Z,98268.91
2022-12-11T14:25:27.053Z,98258.03
2022-12-11T14:28:36.785Z,98267.88
2022-12-11T14:31:43.544Z,98269.25
2022-12-11T14:34:47.556Z,98248.81
2022-12-11T14:37:49.677Z,98254.34
2022-12-11T14:40:56.443Z,98253.16
2022-12-11T14:44:02.452Z,98250.28
2022-12-11T14:47:13.927Z,98250.00
2022-12-11T14:50:24.234Z,98245.03
2022-12-11T14:53:35.716Z,98246.06
2022-12-11T14:56:38.639Z,98239.34
2022-12-11T14:59:46.894Z,98233.16
2022-12-11T15:03:01.775Z,98229.66
2022-12-11T15:06:24.133Z,98232.97
2022-12-11T15:09:36.502Z,98226.44
2022-12-11T15:12:44.629Z,98222.66
2022-12-11T15:15:47.811Z,98231.78
2022-12-11T15:18:52.277Z,98213.81
2022-12-11T15:21:55.414Z,98214.44
2022-12-11T15:24:59.262Z,98217.13
2022-12-11T15:28:02.053Z,98203.28
2022-12-11T15:31:36.427Z,98208.91
2022-12-11T15:34:47.192Z,98200.91
2022-12-11T15:37:54.153Z,98205.59
2022-12-11T15:40:56.613Z,98194.72
2022-12-11T15:44:02.014Z,98193.81
2022-12-11T15:47:15.561Z,98190.75
2022-12-11T15:50:26.035Z,98184.97
2022-12-11T15:53:27.842Z,98190.13
2022-12-11T15:56:30.143Z,98185.16
2022-12-11T15:59:33.148Z,98176.94
2022-12-11T16:02:34.997Z,98177.41
2022-12-11T16:05:36.869Z,98177.22
2022-12-11T16:08:38.723Z,98179.25
2022-12-11T16:11:40.636Z,98169.75
2022-12-11T16:14:43.948Z,98181.63
2022-12-11T16:17:46.994Z,98165.06
2022-12-11T16:20:50.038Z,98169.28
2022-12-11T16:23:52.247Z,98179.31
2022-12-11T16:26:54.419Z,98171.03
2022-12-11T16:29:56.335Z,98167.53
2022-12-11T16:32:58.878Z,98167.53
2022-12-11T16:36:00.713Z,98173.41
2022-12-11T16:39:02.667Z,98184.66
2022-12-11T16:42:05.909Z,98178.00
2022-12-11T16:45:12.743Z,98186.88
2022-12-11T16:48:17.376Z,98169.00
2022-12-11T16:51:19.319Z,98164.84
2022-12-11T16:54:21.211Z,98165.09
2022-12-11T16:57:23.123Z,98174.47
2022-12-11T17:00:25.940Z,98170.22
2022-12-11T17:03:32.010Z,98173.22
2022-12-11T17:06:34.227Z,98171.47
2022-12-11T17:09:42.288Z,98164.03
2022-12-11T17:12:44.183Z,98172.41
2022-12-11T17:15:46.160Z,98175.28
2022-12-11T17:18:48.443Z,98166.47
2022-12-11T17:21:51.856Z,98168.78
2022-12-11T17:24:54.044Z,98167.47
2022-12-11T17:27:55.887Z,98187.84
2022-12-11T17:30:58.748Z,98177.00
2022-12-11T17:34:03.436Z,98189.06
2022-12-11T17:37:05.952Z,98182.56
2022-12-11T17:40:08.318Z,98186.28
2022-12-11T17:43:12.025Z,98194.28
2022-12-11T17:46:14.587Z,98184.13
2022-12-11T17:49:16.504Z,98188.84
2022-12-11T17:52:18.441Z,98189.31
2022-12-11T17:55:20.391Z,98189.34
2022-12-11T17:58:23.627Z,98185.03
2022-12-11T18:01:25.577Z,98191.41
2022-12-11T18:04:27.498Z,98180.25
2022-12-11T18:07:29.339Z,98171.44
2022-12-11T18:10:31.207Z,98184.59
2022-12-11T18:13:33.179Z,98172.78
2022-12-11T18:16:38.146Z,98168.81
2022-12-11T18:19:45.906Z,98159.50
2022-12-11T18:22:48.101Z,98164.34
2022-12-11T18:25:49.927Z,98162.69
2022-12-11T18:28:53.042Z,98168.88
2022-12-11T18:31:55.926Z,98169.19
2022-12-11T18:34:57.763Z,98163.22
2022-12-11T18:37:59.712Z,98174.88
2022-12-11T18:41:09.536Z,98161.25
2022-12-11T18:44:11.494Z,98152.25
2022-12-11T18:47:13.320Z,98155.41
2022-12-11T18:50:15.578Z,98166.41
2022-12-11T18:53:18.481Z,98167.25
2022-12-11T18:56:21.184Z,98164.25
2022-12-11T18:59:25.142Z,98156.09
2022-12-11T19:02:26.968Z,98156.28
2022-12-11T19:05:29.411Z,98149.13
2022-12-11T19:08:31.601Z,98152.25
2022-12-11T19:11:39.099Z,98158.41
2022-12-11T19:14:40.993Z,98160.41
2022-12-11T19:17:43.411Z,98139.13
2022-12-11T19:20:52.354Z,98127.47
2022-12-11T19:23:59.894Z,98126.81
2022-12-11T19:27:01.980Z,98128.47
2022-12-11T19:30:04.587Z,98133.97
2022-12-11T19:33:06.427Z,98141.47
2022-12-11T19:36:12.312Z,98140.78
2022-12-11T19:39:17.131Z,98139.63
2022-12-11T19:42:19.024Z,98141.63
2022-12-11T19:45:20.935Z,98140.44
2022-12-11T19:48:22.845Z,98137.47
2022-12-11T19:51:38.615Z,98140.09
2022-12-11T19:54:40.581Z,98119.81
2022-12-11T19:57:42.624Z,98147.56
2022-12-11T20:00:45.013Z,98144.25
2022-12-11T20:03:47.299Z,98144.75
2022-12-11T20:06:49.246Z,98134.75
2022-12-11T20:09:52.212Z,98141.41
2022-12-11T20:12:56.750Z,98142.22
2022-12-11T20:16:00.329Z,98141.03
2022-12-11T20:19:02.273Z,98146.03
2022-12-11T20:22:05.139Z,98137.69
2022-12-11T20:25:07.555Z,98149.84
2022-12-11T20:28:09.912Z,98159.66
2022-12-11T20:31:20.005Z,98156.16
2022-12-11T20:34:24.741Z,98173.47
2022-12-11T20:37:29.027Z,98172.81
2022-12-11T20:40:30.875Z,98172.97
2022-12-11T20:43:35.033Z,98165.00
2022-12-11T20:46:38.078Z,98151.34
2022-12-11T20:49:40.548Z,98157.66
2022-12-11T20:52:42.492Z,98160.16
2022-12-11T20:55:47.492Z,98158.66
2022-12-11T20:58:49.564Z,98153.66
2022-12-11T21:01:52.143Z,98171.78
2022-12-11T21:04:53.956Z,98167.78
2022-12-11T21:07:56.212Z,98159.81
2022-12-11T21:10:58.101Z,98153.00
2022-12-11T21:13:59.984Z,98157.84
2022-12-11T21:17:01.915Z,98158.84
2022-12-11T21:20:04.671Z,98154.16
2022-12-11T21:23:06.572Z,98143.53
2022-12-11T21:26:09.200Z,98139.72
2022-12-11T21:29:11.147Z,98128.88
2022-12-11T21:32:13.842Z,98133.91
2022-12-11T21:35:15.711Z,98139.88
2022-12-11T21:38:17.562Z,98128.22
2022-12-11T21:41:21.872Z,98129.88
2022-12-11T21:47:46.302Z,98164.34
2022-12-11T21:50:48.192Z,98140.88
2022-12-11T21:53:50.857Z,98151.53
2022-12-11T21:56:54.232Z,98164.34
2022-12-11T21:59:56.270Z,98151.03
2022-12-11T22:02:58.110Z,98152.72
2022-12-11T22:05:59.920Z,98151.53
2022-12-11T22:09:02.322Z,98150.22
2022-12-11T22:12:04.829Z,98129.91
2022-12-11T22:15:07.527Z,98141.41
2022-12-11T22:18:09.375Z,98132.91
2022-12-11T22:21:11.639Z,98128.59
2022-12-11T22:24:14.199Z,98141.25
2022-12-11T22:27:21.969Z,98140.91
2022-12-11T22:30:25.512Z,98128.59
2022-12-11T22:33:27.543Z,98120.28
2022-12-11T22:36:29.525Z,98111.00
2022-12-11T22:39:31.329Z,98123.63
2022-12-11T22:42:33.627Z,98111.00
2022-12-11T22:45:39.336Z,98107.81
2022-12-11T22:48:41.375Z,98112.47
2022-12-11T22:51:43.165Z,98125.66
2022-12-11T22:54:45.224Z,98123.13
2022-12-11T22:57:47.175Z,98140.28
2022-12-11T23:00:49.450Z,98135.28
2022-12-11T23:03:51.680Z,98128.28
2022-12-11T23:06:53.631Z,98121.13
2022-12-11T23:09:55.949Z,98119.81
2022-12-11T23:12:57.756Z,98128.44
2022-12-11T23:15:59.566Z,98125.94
2022-12-11T23:19:01.496Z,98123.28
2022-12-11T23:22:03.906Z,98124.41
2022-12-11T23:25:06.240Z,98114.25
2022-12-11T23:28:08.135Z,98123.25
2022-12-11T23:31:10.280Z,98112.75
2022-12-11T23:34:12.226Z,98096.63
2022-12-11T23:37:14.092Z,98089.81
2022-12-11T23:40:16.046Z,98085.69
2022-12-11T23:43:17.964Z,98076.50
2022-12-11T23:46:23.527Z,98078.84
2022-12-11T23:49:25.495Z,98094.63
2022-12-11T23:52:27.358Z,98084.66
2022-12-11T23:55:29.595Z,98088.97
2022-12-11T23:58:31.466Z,98090.31
